Terminal Aerodrome Forecast
Issued by NWS

Home | Current Version | Previous Version | Graphics & Text | Print | Product List | Glossary On
Versions: 1 2 3 4 5 6 7 8 9 10 11 12 13 14 15
862
FTUS43 KMPX 211749
TAFAXN
TAF
KAXN 211749Z 2118/2218 15012G20KT P6SM FEW120
     FM220100 17007KT P6SM VCTS SCT050CB BKN100
     FM220400 24006KT P6SM SCT100
     FM220700 33006KT P6SM SKC
     FM221300 05005KT P6SM OVC120
     FM221700 18005KT P6SM VCSH SCT070 BKN120=

USA.gov is the U.S. government's official web portal to all federal, state and local government web resources and services.